Time;durP1;ratioP1;P1;durP2;ratioP2;P2;SDS_P1;SDS_P2;PMS_P1;PMS_P2;Temp;Humidity;BMP_temperature;BMP_pressure;BME280_temperature;BME280_humidity;BME280_pressure;Samples;Min_cycle;Max_cycle;Signal;HPM_P1;HPM_P2
2023/09/10 00:00:56;;;;;;;23.50;14.70;;;18.20;99.90;;;;;;5069200;28;20462;-71
2023/09/10 00:03:24;;;;;;;19.57;15.00;;;18.00;99.90;;;;;;5055072;28;20468;-70
2023/09/10 00:05:53;;;;;;;24.20;18.50;;;18.00;99.90;;;;;;5048773;28;20452;-72
2023/09/10 00:08:21;;;;;;;22.60;16.90;;;18.00;99.90;;;;;;5049888;28;20997;-73
2023/09/10 00:10:50;;;;;;;23.37;17.30;;;18.00;99.90;;;;;;5049692;28;20448;-71
2023/09/10 00:13:18;;;;;;;20.60;16.57;;;18.10;99.90;;;;;;5049339;28;20915;-71
2023/09/10 00:15:46;;;;;;;21.67;17.17;;;18.00;99.90;;;;;;5049394;28;20483;-69
2023/09/10 00:18:15;;;;;;;24.57;18.63;;;18.00;99.90;;;;;;5049704;28;21136;-70
2023/09/10 00:20:43;;;;;;;23.17;17.13;;;18.00;99.90;;;;;;5049678;28;20919;-69
2023/09/10 00:23:12;;;;;;;20.90;16.10;;;17.90;99.90;;;;;;5049203;28;20451;-70
2023/09/10 00:25:41;;;;;;;23.60;16.63;;;17.90;99.90;;;;;;5049260;28;20535;-70
2023/09/10 00:28:10;;;;;;;22.53;16.37;;;17.90;99.90;;;;;;5049555;28;20459;-70
2023/09/10 00:30:38;;;;;;;21.97;16.70;;;17.80;99.90;;;;;;5049773;28;20542;-70
2023/09/10 00:33:06;;;;;;;20.83;16.67;;;17.80;99.90;;;;;;5049222;28;20443;-70
2023/09/10 00:35:34;;;;;;;23.20;17.20;;;17.90;99.90;;;;;;5049421;28;20505;-71
2023/09/10 00:38:03;;;;;;;23.50;16.83;;;17.80;99.90;;;;;;5049043;28;20448;-71
2023/09/10 00:40:31;;;;;;;23.97;17.67;;;17.90;99.90;;;;;;5049190;28;20974;-71
2023/09/10 00:42:59;;;;;;;21.30;16.40;;;17.90;99.90;;;;;;5049011;28;20479;-70
2023/09/10 00:45:28;;;;;;;22.73;17.17;;;17.90;99.90;;;;;;5049028;28;20452;-71
2023/09/10 00:47:56;;;;;;;21.13;17.40;;;17.80;99.90;;;;;;5054433;28;20460;-72
2023/09/10 00:50:25;;;;;;;23.23;16.00;;;17.70;99.90;;;;;;5053298;28;20440;-72
2023/09/10 00:52:56;;;;;;;19.57;15.90;;;17.80;99.90;;;;;;5061709;28;20451;-72
2023/09/10 00:55:26;;;;;;;20.47;16.73;;;17.80;99.90;;;;;;5069233;28;20447;-71
2023/09/10 00:57:54;;;;;;;23.03;16.27;;;17.70;99.90;;;;;;5069661;28;20831;-70
2023/09/10 01:00:23;;;;;;;22.47;16.93;;;17.70;99.90;;;;;;5069184;28;20490;-72
2023/09/10 01:02:53;;;;;;;24.57;16.10;;;17.70;99.90;;;;;;5069471;28;20447;-71
2023/09/10 01:05:21;;;;;;;23.13;17.23;;;17.80;99.90;;;;;;5069611;28;20447;-72
2023/09/10 01:07:50;;;;;;;21.93;17.07;;;17.80;99.90;;;;;;5056918;28;20452;-71
2023/09/10 01:10:18;;;;;;;25.03;18.63;;;17.80;99.90;;;;;;5061983;28;20452;-72
2023/09/10 01:12:55;;;;;;;22.40;16.33;;;17.90;99.90;;;;;;5054976;28;20472;-71
2023/09/10 01:15:29;;;;;;;25.67;17.17;;;17.90;99.90;;;;;;5067988;28;20515;-73
2023/09/10 01:18:06;;;;;;;22.70;17.93;;;17.80;99.90;;;;;;5073474;28;20523;-71
2023/09/10 01:20:50;;;;;;;24.07;18.03;;;17.80;99.90;;;;;;5073262;28;20488;-72
2023/09/10 01:23:24;;;;;;;21.93;15.63;;;17.80;99.90;;;;;;5073117;28;20530;-71
2023/09/10 01:25:55;;;;;;;19.43;15.80;;;17.80;99.90;;;;;;5072892;28;20511;-73
2023/09/10 01:28:23;;;;;;;21.40;16.67;;;17.80;99.90;;;;;;5072914;28;20463;-70
2023/09/10 01:30:51;;;;;;;24.37;20.00;;;17.80;99.90;;;;;;5072622;28;20505;-71
2023/09/10 01:33:24;;;;;;;24.97;19.33;;;17.60;99.90;;;;;;5072390;28;20442;-71
2023/09/10 01:35:58;;;;;;;23.60;19.67;;;17.50;99.90;;;;;;5072617;28;20501;-71
2023/09/10 01:38:32;;;;;;;22.77;17.37;;;17.60;99.90;;;;;;5072278;28;20524;-70
2023/09/10 01:41:08;;;;;;;30.70;19.67;;;17.70;99.90;;;;;;5072486;28;20480;-71
2023/09/10 01:43:36;;;;;;;19.93;17.40;;;17.60;99.90;;;;;;5071882;28;20449;-69
2023/09/10 01:46:06;;;;;;;20.70;16.83;;;17.50;99.90;;;;;;5072512;28;20447;-71
2023/09/10 01:48:34;;;;;;;23.00;16.40;;;17.50;99.90;;;;;;5072263;28;20467;-71
2023/09/10 01:51:03;;;;;;;27.87;17.60;;;17.40;99.90;;;;;;5072527;28;20447;-71
2023/09/10 01:53:31;;;;;;;22.37;16.73;;;17.50;99.90;;;;;;5071702;28;20477;-71
2023/09/10 01:55:59;;;;;;;22.03;16.70;;;17.60;99.90;;;;;;5071843;28;20542;-71
2023/09/10 01:58:28;;;;;;;24.57;18.07;;;17.60;99.90;;;;;;5072291;28;20477;-72
2023/09/10 02:00:56;;;;;;;22.67;17.30;;;17.50;99.90;;;;;;5071581;28;20581;-71
2023/09/10 02:03:24;;;;;;;22.07;16.13;;;17.40;99.90;;;;;;5071049;28;20492;-71
2023/09/10 02:05:52;;;;;;;22.93;16.23;;;17.40;99.90;;;;;;5071472;28;20488;-71
2023/09/10 02:08:20;;;;;;;20.23;16.00;;;17.40;99.90;;;;;;5071790;28;20558;-71
2023/09/10 02:10:48;;;;;;;20.20;15.70;;;17.40;99.90;;;;;;5071514;28;20443;-71
2023/09/10 02:13:16;;;;;;;21.50;16.03;;;17.50;99.90;;;;;;5071755;28;20455;-71
2023/09/10 02:15:45;;;;;;;20.43;15.80;;;17.40;99.90;;;;;;5071311;28;20832;-71
2023/09/10 02:18:13;;;;;;;20.73;16.47;;;17.40;99.90;;;;;;5071732;28;20532;-71
2023/09/10 02:20:41;;;;;;;22.77;16.73;;;17.40;99.90;;;;;;5071526;28;21022;-71
2023/09/10 02:23:09;;;;;;;24.00;15.80;;;17.40;99.90;;;;;;5071298;28;20497;-71
2023/09/10 02:25:37;;;;;;;22.30;17.40;;;17.20;99.90;;;;;;5070506;28;20849;-71
2023/09/10 02:28:09;;;;;;;20.13;16.30;;;17.20;99.90;;;;;;5071494;28;20461;-71
2023/09/10 02:30:37;;;;;;;21.30;16.23;;;17.20;99.90;;;;;;5071672;28;20493;-71
2023/09/10 02:33:09;;;;;;;22.57;16.83;;;17.20;99.90;;;;;;5071057;28;20451;-71
2023/09/10 02:35:37;;;;;;;20.17;15.53;;;17.20;99.90;;;;;;5071207;28;20524;-71
2023/09/10 02:38:05;;;;;;;22.97;18.50;;;17.10;99.90;;;;;;5071181;28;20458;-71
2023/09/10 02:40:33;;;;;;;18.07;15.13;;;17.10;99.90;;;;;;5071555;28;20483;-71
2023/09/10 02:43:01;;;;;;;24.23;16.27;;;17.20;99.90;;;;;;5070909;28;20447;-71
2023/09/10 02:45:29;;;;;;;25.60;16.17;;;17.20;99.90;;;;;;5071222;28;20447;-71
2023/09/10 02:47:56;;;;;;;20.30;15.20;;;17.20;99.90;;;;;;5070827;28;20447;-71
2023/09/10 02:50:26;;;;;;;21.07;15.60;;;17.20;99.90;;;;;;5071275;28;20441;-71
2023/09/10 02:52:54;;;;;;;21.67;15.90;;;17.20;99.90;;;;;;5071072;28;20875;-71
2023/09/10 02:55:22;;;;;;;20.60;15.37;;;17.10;99.90;;;;;;5071056;28;20455;-71
2023/09/10 02:57:50;;;;;;;22.40;15.67;;;17.00;99.90;;;;;;5071238;28;20447;-70
2023/09/10 03:00:22;;;;;;;21.00;14.97;;;17.00;99.90;;;;;;5070919;28;20475;-71
2023/09/10 03:02:52;;;;;;;20.03;15.27;;;16.90;99.90;;;;;;5070559;28;20546;-71
2023/09/10 03:05:20;;;;;;;19.57;14.90;;;16.90;99.90;;;;;;5070796;28;20443;-71
2023/09/10 03:07:53;;;;;;;23.47;16.57;;;16.80;99.90;;;;;;5061562;28;20476;-71
2023/09/10 03:10:21;;;;;;;20.50;15.50;;;16.80;99.90;;;;;;5059121;28;20448;-71
2023/09/10 03:12:49;;;;;;;19.97;15.40;;;16.80;99.90;;;;;;5060641;28;20509;-71
2023/09/10 03:15:17;;;;;;;23.43;17.37;;;16.90;99.90;;;;;;5058514;28;20464;-71
2023/09/10 03:17:45;;;;;;;23.97;16.03;;;16.90;99.90;;;;;;5060701;28;20929;-71
2023/09/10 03:20:13;;;;;;;20.63;15.23;;;16.90;99.90;;;;;;5070569;28;20573;-71
2023/09/10 03:22:41;;;;;;;20.80;16.33;;;16.80;99.90;;;;;;5070190;28;20451;-71
2023/09/10 03:25:11;;;;;;;21.50;15.80;;;16.80;99.90;;;;;;5070503;28;20501;-71
2023/09/10 03:27:39;;;;;;;19.60;15.77;;;16.70;99.90;;;;;;5054093;28;20535;-71
2023/09/10 03:30:08;;;;;;;20.80;15.57;;;16.70;99.90;;;;;;5050486;28;20474;-71
2023/09/10 03:32:36;;;;;;;19.93;15.03;;;16.70;99.90;;;;;;5050081;28;20444;-71
2023/09/10 03:35:05;;;;;;;21.43;16.00;;;16.60;99.90;;;;;;5049872;28;20462;-71
2023/09/10 03:37:33;;;;;;;21.07;16.40;;;16.60;99.90;;;;;;5050050;28;20448;-71
2023/09/10 03:40:00;;;;;;;22.03;15.27;;;16.50;99.90;;;;;;5050110;28;20915;-70
2023/09/10 03:42:30;;;;;;;20.40;14.07;;;16.60;99.90;;;;;;5049724;28;20444;-71
2023/09/10 03:44:58;;;;;;;19.87;14.20;;;16.50;99.90;;;;;;5049921;28;20476;-70
2023/09/10 03:47:28;;;;;;;19.50;15.57;;;16.60;99.90;;;;;;5050939;28;20989;-70
2023/09/10 03:49:56;;;;;;;20.90;15.43;;;16.40;99.90;;;;;;5050344;28;20476;-71
2023/09/10 03:52:24;;;;;;;21.27;15.50;;;16.50;99.90;;;;;;5049879;28;20991;-71
2023/09/10 03:54:51;;;;;;;20.37;15.63;;;16.40;99.90;;;;;;5049398;28;20570;-71
2023/09/10 03:57:19;;;;;;;18.60;15.00;;;16.50;99.90;;;;;;5049907;28;20506;-70
2023/09/10 03:59:49;;;;;;;21.10;16.23;;;16.50;99.90;;;;;;5049888;28;20781;-71
2023/09/10 04:02:17;;;;;;;20.63;14.57;;;16.50;99.90;;;;;;5049908;28;20483;-71
2023/09/10 04:04:46;;;;;;;20.97;15.17;;;16.50;99.90;;;;;;5049114;28;20910;-72
2023/09/10 04:07:14;;;;;;;24.47;16.40;;;16.50;99.90;;;;;;5049902;28;20535;-71
2023/09/10 04:09:42;;;;;;;24.30;18.00;;;16.40;99.90;;;;;;5049494;28;20476;-71
2023/09/10 04:12:10;;;;;;;21.40;16.50;;;16.40;99.90;;;;;;5050070;28;20470;-71
2023/09/10 04:14:39;;;;;;;23.70;16.70;;;16.30;99.90;;;;;;5049190;28;20525;-72
2023/09/10 04:17:08;;;;;;;20.80;16.50;;;16.30;99.90;;;;;;5049806;28;20501;-71
2023/09/10 04:19:36;;;;;;;23.87;16.30;;;16.40;99.90;;;;;;5049535;28;20492;-71
2023/09/10 04:22:04;;;;;;;21.90;16.17;;;16.40;99.90;;;;;;5060476;28;20487;-71
2023/09/10 04:24:33;;;;;;;21.27;15.70;;;16.30;99.90;;;;;;5069366;28;20534;-70
2023/09/10 04:27:03;;;;;;;21.67;17.60;;;16.30;99.90;;;;;;5069403;28;20440;-71
2023/09/10 04:29:31;;;;;;;20.90;15.33;;;16.20;99.90;;;;;;5069723;28;20459;-72
2023/09/10 04:31:59;;;;;;;20.90;17.10;;;16.10;99.90;;;;;;5059183;28;20790;-71
2023/09/10 04:34:29;;;;;;;19.37;15.03;;;16.20;99.90;;;;;;5053803;28;21013;-71
2023/09/10 04:36:57;;;;;;;23.00;17.20;;;16.20;99.90;;;;;;5053606;28;20443;-71
2023/09/10 04:39:26;;;;;;;22.80;16.43;;;16.20;99.90;;;;;;5055999;28;20492;-71
2023/09/10 04:41:53;;;;;;;23.43;16.93;;;16.20;99.90;;;;;;5049132;28;20852;-71
2023/09/10 04:44:21;;;;;;;23.37;17.23;;;16.30;99.90;;;;;;5049219;28;21230;-71
2023/09/10 04:46:49;;;;;;;23.57;18.10;;;16.30;99.90;;;;;;5048764;28;20443;-71
2023/09/10 04:49:17;;;;;;;22.20;16.57;;;16.30;99.90;;;;;;5051409;28;20457;-72
2023/09/10 04:51:47;;;;;;;21.77;16.70;;;16.20;99.90;;;;;;5059224;28;20833;-71
2023/09/10 04:54:14;;;;;;;22.17;16.37;;;16.20;99.90;;;;;;5069111;28;20474;-71
2023/09/10 04:56:43;;;;;;;19.83;16.17;;;16.20;99.90;;;;;;5069654;28;20512;-71
2023/09/10 04:59:11;;;;;;;23.30;16.10;;;16.30;99.90;;;;;;5057429;28;20456;-71
2023/09/10 05:01:39;;;;;;;20.17;15.70;;;16.20;99.90;;;;;;5049423;28;20486;-71
2023/09/10 05:04:07;;;;;;;20.63;15.30;;;16.20;99.90;;;;;;5048998;28;20459;-71
2023/09/10 05:06:35;;;;;;;22.30;15.90;;;16.30;99.90;;;;;;5049478;28;20451;-71
2023/09/10 05:09:05;;;;;;;21.73;16.43;;;16.20;99.90;;;;;;5049057;28;20467;-71
2023/09/10 05:11:33;;;;;;;19.90;14.97;;;16.20;99.90;;;;;;5049688;28;20466;-71
2023/09/10 05:14:01;;;;;;;22.13;16.03;;;16.20;99.90;;;;;;5049043;28;20534;-71
2023/09/10 05:16:30;;;;;;;20.87;14.80;;;16.20;99.90;;;;;;5049409;28;20475;-71
2023/09/10 05:18:58;;;;;;;21.43;16.73;;;16.20;99.90;;;;;;5049398;28;20467;-71
2023/09/10 05:21:26;;;;;;;22.30;14.17;;;16.10;99.90;;;;;;5049131;28;21066;-71
2023/09/10 05:23:54;;;;;;;21.43;16.60;;;16.10;99.90;;;;;;5048766;28;20946;-72
2023/09/10 05:26:23;;;;;;;20.97;15.60;;;16.10;99.90;;;;;;5048905;28;20452;-72
2023/09/10 05:28:51;;;;;;;21.50;15.83;;;16.10;99.90;;;;;;5049514;28;20471;-71
2023/09/10 05:31:19;;;;;;;19.17;15.57;;;16.10;99.90;;;;;;5048834;28;20471;-71
2023/09/10 05:33:47;;;;;;;21.23;16.00;;;16.10;99.90;;;;;;5048590;28;20456;-71
2023/09/10 05:36:15;;;;;;;22.50;15.60;;;16.20;99.90;;;;;;5048571;28;20448;-71
2023/09/10 05:38:43;;;;;;;17.70;14.80;;;16.20;99.90;;;;;;5048719;28;20472;-71
2023/09/10 05:41:11;;;;;;;18.80;14.70;;;16.30;99.90;;;;;;5048754;28;20478;-71
2023/09/10 05:43:40;;;;;;;18.33;14.93;;;16.40;99.90;;;;;;5048569;28;20513;-72
2023/09/10 05:46:08;;;;;;;19.40;14.63;;;16.50;99.90;;;;;;5048473;28;20444;-71
2023/09/10 05:48:36;;;;;;;22.20;15.30;;;16.60;99.90;;;;;;5048453;28;20852;-71
2023/09/10 05:51:04;;;;;;;20.27;14.20;;;16.60;99.90;;;;;;5048734;28;20452;-71
2023/09/10 05:53:32;;;;;;;21.03;14.10;;;16.60;99.90;;;;;;5047998;28;20546;-71
2023/09/10 05:56:03;;;;;;;20.90;14.60;;;16.70;99.90;;;;;;5048635;28;20448;-70
2023/09/10 05:58:31;;;;;;;20.67;15.47;;;16.70;99.90;;;;;;5048731;28;20467;-70
2023/09/10 06:01:00;;;;;;;18.53;13.37;;;16.80;99.90;;;;;;5052086;28;20448;-72
2023/09/10 06:03:29;;;;;;;19.70;13.90;;;16.90;99.90;;;;;;5051595;28;20821;-70
2023/09/10 06:05:58;;;;;;;20.13;14.63;;;16.90;99.90;;;;;;5051497;28;20443;-71
2023/09/10 06:08:29;;;;;;;20.83;13.63;;;17.00;99.90;;;;;;5051555;28;21061;-70
2023/09/10 06:10:57;;;;;;;16.87;13.23;;;17.00;99.90;;;;;;5051723;28;20454;-69
2023/09/10 06:13:25;;;;;;;18.30;13.73;;;17.10;99.90;;;;;;5051668;28;20878;-71
2023/09/10 06:15:53;;;;;;;21.93;13.83;;;17.20;99.90;;;;;;5051339;28;20452;-71
2023/09/10 06:18:22;;;;;;;19.70;12.43;;;17.30;99.90;;;;;;5051546;28;20891;-71
2023/09/10 06:20:50;;;;;;;18.27;13.67;;;17.30;99.90;;;;;;5051645;28;20470;-71
2023/09/10 06:23:18;;;;;;;18.43;14.00;;;17.30;99.90;;;;;;5051424;28;20502;-69
2023/09/10 06:25:47;;;;;;;16.50;12.80;;;17.30;99.90;;;;;;5051530;28;20448;-71
2023/09/10 06:28:14;;;;;;;18.63;14.83;;;17.30;99.90;;;;;;5051782;28;20468;-71
2023/09/10 06:30:42;;;;;;;16.77;12.43;;;17.40;99.90;;;;;;5051558;28;20447;-71
2023/09/10 06:33:10;;;;;;;18.17;13.17;;;17.50;99.90;;;;;;5053256;28;20455;-71
2023/09/10 06:35:40;;;;;;;16.17;13.60;;;17.60;99.90;;;;;;5062877;28;20467;-71
2023/09/10 06:38:08;;;;;;;15.90;11.97;;;17.70;99.90;;;;;;5060775;28;20483;-71
2023/09/10 06:40:36;;;;;;;17.77;13.87;;;17.80;99.90;;;;;;5061082;28;20859;-71
2023/09/10 06:43:05;;;;;;;17.60;13.20;;;17.90;99.90;;;;;;5073436;28;20478;-71
2023/09/10 06:45:33;;;;;;;19.00;14.33;;;18.10;99.90;;;;;;5074386;28;20462;-72
2023/09/10 06:48:01;;;;;;;19.03;13.10;;;18.20;99.90;;;;;;5073231;28;20455;-71
2023/09/10 06:50:29;;;;;;;18.30;13.33;;;18.30;99.90;;;;;;5071520;28;20798;-72
2023/09/10 06:52:58;;;;;;;15.97;12.87;;;18.50;99.90;;;;;;5070720;28;20453;-71
2023/09/10 06:55:26;;;;;;;17.63;12.93;;;18.70;99.90;;;;;;5070832;28;20539;-72
2023/09/10 06:57:55;;;;;;;18.20;13.80;;;18.80;99.90;;;;;;5070751;28;20447;-71
2023/09/10 07:00:23;;;;;;;17.73;13.30;;;19.00;99.90;;;;;;5071047;28;20447;-72
2023/09/10 07:02:51;;;;;;;18.60;12.80;;;19.10;99.90;;;;;;5070370;28;20573;-71
2023/09/10 07:05:20;;;;;;;16.93;13.20;;;19.40;99.90;;;;;;5070836;28;20447;-72
2023/09/10 07:07:53;;;;;;;19.87;13.30;;;19.40;99.90;;;;;;5070853;28;20855;-72
2023/09/10 07:10:22;;;;;;;17.70;13.13;;;19.50;99.90;;;;;;5070099;28;20547;-72
2023/09/10 07:12:50;;;;;;;18.20;13.60;;;19.60;99.90;;;;;;5070959;28;20453;-72
2023/09/10 07:15:18;;;;;;;20.37;13.83;;;19.70;99.90;;;;;;5070504;28;20489;-71
2023/09/10 07:17:46;;;;;;;20.53;14.13;;;19.70;99.90;;;;;;5070582;28;20941;-72
2023/09/10 07:20:14;;;;;;;16.80;13.17;;;19.70;99.90;;;;;;5070514;28;20499;-68
2023/09/10 07:22:42;;;;;;;20.93;13.80;;;19.70;99.90;;;;;;5070228;28;20482;-69
2023/09/10 07:25:10;;;;;;;17.87;12.97;;;19.80;99.90;;;;;;5069860;28;20530;-71
2023/09/10 07:27:39;;;;;;;16.30;12.50;;;19.90;99.90;;;;;;5070457;28;20964;-69
2023/09/10 07:30:08;;;;;;;18.73;13.83;;;20.00;99.90;;;;;;5070351;28;20498;-69
2023/09/10 07:32:36;;;;;;;17.00;12.80;;;20.10;99.90;;;;;;5069400;28;20443;-69
2023/09/10 07:35:04;;;;;;;17.70;13.27;;;20.30;99.90;;;;;;5069776;28;20458;-71
2023/09/10 07:37:32;;;;;;;24.80;14.33;;;20.30;99.90;;;;;;5069793;28;20451;-70
2023/09/10 07:40:00;;;;;;;18.20;12.17;;;20.40;99.90;;;;;;5063433;28;20459;-70
2023/09/10 07:42:28;;;;;;;15.17;11.43;;;20.60;99.90;;;;;;5049761;28;20828;-69
2023/09/10 07:44:58;;;;;;;17.30;12.93;;;20.70;99.90;;;;;;5065129;28;20450;-68
2023/09/10 07:47:26;;;;;;;17.07;12.10;;;20.80;99.90;;;;;;5069918;28;20668;-70
2023/09/10 07:49:54;;;;;;;20.40;13.23;;;20.90;99.90;;;;;;5070138;28;20471;-69
2023/09/10 07:52:22;;;;;;;19.60;16.10;;;21.00;99.90;;;;;;5069401;28;20451;-68
2023/09/10 07:54:50;;;;;;;17.67;13.40;;;21.10;99.90;;;;;;5069868;28;20492;-70
2023/09/10 07:57:18;;;;;;;17.67;13.37;;;21.30;99.90;;;;;;5069941;28;21030;-71
2023/09/10 07:59:46;;;;;;;16.70;12.70;;;21.40;99.90;;;;;;5069684;28;20468;-69
2023/09/10 08:02:15;;;;;;;19.90;14.00;;;21.60;99.90;;;;;;5068926;28;20434;-69
2023/09/10 08:04:43;;;;;;;15.83;11.83;;;21.70;99.90;;;;;;5069115;28;20504;-70
2023/09/10 08:07:12;;;;;;;17.13;12.37;;;21.90;99.90;;;;;;5069848;28;20849;-69
2023/09/10 08:09:40;;;;;;;16.60;13.40;;;22.00;99.90;;;;;;5069235;28;20566;-70
2023/09/10 08:12:08;;;;;;;16.93;12.23;;;22.10;99.90;;;;;;5069623;28;20447;-68
2023/09/10 08:14:38;;;;;;;19.47;12.77;;;22.20;99.90;;;;;;5068863;28;20447;-69
2023/09/10 08:17:06;;;;;;;18.70;13.23;;;22.40;99.90;;;;;;5069555;28;20531;-69
2023/09/10 08:19:36;;;;;;;15.50;11.70;;;22.70;99.90;;;;;;5069813;28;20470;-69
2023/09/10 08:22:04;;;;;;;18.93;11.50;;;22.70;99.90;;;;;;5069568;28;20451;-69
2023/09/10 08:24:32;;;;;;;17.30;12.67;;;22.70;99.90;;;;;;5069073;28;21099;-68
2023/09/10 08:27:03;;;;;;;17.90;12.53;;;22.90;99.90;;;;;;5069259;28;20955;-69
2023/09/10 08:29:32;;;;;;;17.97;11.67;;;23.00;99.90;;;;;;5053263;28;20467;-70
2023/09/10 08:32:01;;;;;;;15.70;11.43;;;23.10;99.90;;;;;;5052532;28;20447;-70
2023/09/10 08:34:29;;;;;;;16.47;11.33;;;23.20;99.90;;;;;;5047614;28;20950;-69
2023/09/10 08:36:58;;;;;;;15.90;12.17;;;23.40;99.90;;;;;;5048642;28;20456;-69
2023/09/10 08:39:26;;;;;;;18.50;11.30;;;23.60;99.90;;;;;;5049539;28;20525;-69
2023/09/10 08:42:00;;;;;;;16.00;11.10;;;23.80;99.90;;;;;;5049340;28;20486;-69
2023/09/10 08:44:29;;;;;;;17.07;11.57;;;23.90;99.90;;;;;;5048943;28;20484;-69
2023/09/10 08:47:01;;;;;;;16.87;12.03;;;24.10;99.90;;;;;;5049056;28;20447;-69
2023/09/10 08:49:33;;;;;;;15.60;11.23;;;24.20;99.90;;;;;;5048816;28;20474;-69
2023/09/10 08:52:03;;;;;;;17.10;12.13;;;24.40;99.90;;;;;;5056290;28;20452;-69
2023/09/10 08:54:31;;;;;;;17.20;12.33;;;24.30;99.90;;;;;;5052825;28;20498;-70
2023/09/10 08:57:01;;;;;;;17.60;11.27;;;24.40;99.90;;;;;;5058921;28;20439;-70
2023/09/10 08:59:31;;;;;;;16.63;11.57;;;24.50;99.90;;;;;;5068558;28;20466;-71
2023/09/10 09:01:59;;;;;;;17.83;12.30;;;24.60;99.90;;;;;;5069173;28;20820;-71
2023/09/10 09:04:27;;;;;;;17.13;12.83;;;24.80;99.90;;;;;;5068882;28;20907;-71
2023/09/10 09:06:58;;;;;;;16.33;11.50;;;25.00;99.90;;;;;;5069224;28;20455;-71
2023/09/10 09:09:34;;;;;;;17.43;12.07;;;25.00;99.90;;;;;;5069093;28;21195;-71
2023/09/10 09:12:04;;;;;;;19.60;12.80;;;25.20;99.90;;;;;;5069596;28;20474;-71
2023/09/10 09:14:36;;;;;;;18.37;12.43;;;25.40;99.90;;;;;;5069505;28;20522;-70
2023/09/10 09:17:05;;;;;;;16.00;11.40;;;25.70;99.90;;;;;;5063525;28;21031;-72
2023/09/10 09:19:37;;;;;;;15.87;11.13;;;26.20;99.90;;;;;;5063791;28;20466;-73
2023/09/10 09:22:08;;;;;;;18.47;11.63;;;26.50;99.90;;;;;;5057129;28;20866;-73
2023/09/10 09:24:38;;;;;;;19.20;11.63;;;26.90;99.90;;;;;;5063018;28;20513;-72
2023/09/10 09:27:06;;;;;;;16.50;11.63;;;27.00;99.90;;;;;;5058959;28;20439;-71
2023/09/10 09:29:34;;;;;;;16.53;11.00;;;27.10;99.90;;;;;;5058681;28;20520;-71
2023/09/10 09:32:03;;;;;;;14.80;10.10;;;27.10;99.90;;;;;;5058738;28;20444;-70
2023/09/10 09:34:33;;;;;;;15.50;9.63;;;27.20;99.90;;;;;;5064487;28;20439;-70
2023/09/10 09:37:02;;;;;;;17.20;11.23;;;27.40;99.90;;;;;;5067966;28;20523;-69
2023/09/10 09:39:31;;;;;;;16.20;11.47;;;27.50;99.90;;;;;;5064150;28;21086;-70
2023/09/10 09:42:00;;;;;;;17.40;12.07;;;27.70;99.90;;;;;;5059325;28;20452;-71
2023/09/10 09:44:28;;;;;;;17.13;10.77;;;27.70;99.90;;;;;;5058554;28;20476;-70
2023/09/10 09:46:58;;;;;;;15.40;11.37;;;27.80;99.90;;;;;;5066017;28;20491;-71
2023/09/10 09:49:26;;;;;;;13.30;9.83;;;28.00;99.90;;;;;;5067246;28;20494;-71
2023/09/10 09:51:54;;;;;;;15.20;9.50;;;28.50;99.90;;;;;;5062844;28;20435;-71
2023/09/10 09:54:24;;;;;;;15.70;10.70;;;28.80;99.90;;;;;;5067834;28;20452;-69
2023/09/10 09:56:52;;;;;;;13.87;10.10;;;29.00;99.90;;;;;;5067410;28;20478;-71
2023/09/10 09:59:21;;;;;;;12.73;9.37;;;29.20;99.90;;;;;;5068473;28;20470;-71
2023/09/10 10:01:49;;;;;;;13.40;9.60;;;29.50;99.70;;;;;;5063311;28;20526;-71
2023/09/10 10:04:18;;;;;;;16.87;9.77;;;29.90;99.30;;;;;;5060477;28;20494;-70
2023/09/10 10:06:46;;;;;;;12.20;8.87;;;30.00;98.20;;;;;;5065235;28;20444;-71
2023/09/10 10:09:18;;;;;;;14.30;10.67;;;30.20;97.70;;;;;;5062080;28;20473;-71
2023/09/10 10:11:47;;;;;;;16.97;10.30;;;30.30;93.70;;;;;;5061103;28;20446;-71
2023/09/10 10:14:16;;;;;;;13.13;8.97;;;29.90;93.00;;;;;;5055463;28;20495;-71
2023/09/10 10:16:46;;;;;;;15.00;9.13;;;29.60;93.50;;;;;;5051468;28;20548;-71
2023/09/10 10:19:15;;;;;;;13.90;9.27;;;29.80;92.40;;;;;;5052885;28;20471;-71
2023/09/10 10:21:45;;;;;;;13.07;8.80;;;30.20;90.80;;;;;;5051976;28;20448;-70
2023/09/10 10:24:15;;;;;;;12.90;9.50;;;30.60;90.10;;;;;;5057465;28;20480;-71
2023/09/10 10:26:44;;;;;;;16.30;8.67;;;31.20;87.50;;;;;;5062906;28;20539;-71
2023/09/10 10:29:13;;;;;;;12.90;9.10;;;31.60;83.90;;;;;;5065229;28;20875;-72
2023/09/10 10:31:47;;;;;;;11.97;8.70;;;31.50;79.10;;;;;;5063140;28;20886;-72
2023/09/10 10:34:20;;;;;;;14.80;8.67;;;31.20;79.40;;;;;;5061093;28;20439;-72
2023/09/10 10:36:58;;;;;;;12.47;8.53;;;31.30;80.70;;;;;;5062981;28;20856;-72
2023/09/10 10:39:38;;;;;;;13.50;8.80;;;31.40;79.80;;;;;;5057479;28;20459;-73
2023/09/10 10:42:09;;;;;;;13.80;8.27;;;31.70;79.10;;;;;;5061562;28;20958;-72
2023/09/10 10:44:38;;;;;;;11.23;8.10;;;32.10;79.10;;;;;;5060646;28;21031;-71
2023/09/10 10:47:13;;;;;;;11.97;8.90;;;32.50;76.50;;;;;;5061702;28;20443;-72
2023/09/10 10:49:48;;;;;;;12.40;7.87;;;32.20;74.10;;;;;;5059336;28;20483;-71
2023/09/10 10:52:17;;;;;;;15.20;8.87;;;32.30;72.00;;;;;;5061544;28;20866;-71
2023/09/10 10:54:48;;;;;;;12.80;8.20;;;32.50;72.80;;;;;;5062246;28;20440;-72
2023/09/10 10:57:16;;;;;;;11.50;8.00;;;33.00;69.20;;;;;;5061484;28;20500;-72
2023/09/10 10:59:44;;;;;;;13.03;8.10;;;33.50;62.40;;;;;;5062226;28;20467;-71
2023/09/10 11:02:21;;;;;;;14.40;7.80;;;33.50;62.20;;;;;;5061199;28;20531;-72
2023/09/10 11:04:57;;;;;;;12.83;8.20;;;33.40;61.10;;;;;;5061712;28;20474;-69
2023/09/10 11:07:28;;;;;;;12.67;8.07;;;33.50;60.10;;;;;;5061055;28;20435;-72
2023/09/10 11:09:58;;;;;;;11.70;8.37;;;33.70;59.10;;;;;;5059827;28;20471;-71
2023/09/10 11:12:27;;;;;;;12.03;7.93;;;33.70;59.10;;;;;;5050843;28;20439;-72
2023/09/10 11:15:08;;;;;;;12.00;7.63;;;33.70;57.50;;;;;;5053168;28;21136;-71
2023/09/10 11:17:37;;;;;;;12.60;8.23;;;33.90;56.40;;;;;;5065141;28;20824;-69
2023/09/10 11:20:06;;;;;;;13.83;8.07;;;33.70;57.40;;;;;;5070520;28;20489;-72
2023/09/10 11:23:06;;;;;;;12.30;8.17;;;33.50;56.90;;;;;;5059360;28;20595;-71
2023/09/10 11:25:34;;;;;;;12.17;8.37;;;33.30;56.40;;;;;;5002176;28;20512;-71
2023/09/10 11:28:05;;;;;;;13.80;8.23;;;33.30;58.30;;;;;;5047058;28;20590;-71
2023/09/10 11:30:33;;;;;;;11.60;8.03;;;33.90;56.10;;;;;;5070375;28;20451;-71
2023/09/10 11:33:31;;;;;;;11.47;8.33;;;34.40;56.50;;;;;;5066091;28;20443;-72
2023/09/10 11:35:59;;;;;;;14.03;7.67;;;35.00;55.70;;;;;;5067334;28;20441;-72
2023/09/10 11:38:31;;;;;;;11.60;6.97;;;35.50;53.60;;;;;;5069820;28;20475;-72
2023/09/10 11:41:00;;;;;;;10.73;7.70;;;36.10;52.40;;;;;;5061552;28;20502;-71
2023/09/10 11:43:29;;;;;;;12.03;7.27;;;35.80;50.90;;;;;;5050201;28;20486;-71
2023/09/10 11:45:57;;;;;;;13.80;7.63;;;35.30;51.00;;;;;;5048601;28;20916;-71
2023/09/10 11:48:28;;;;;;;12.70;7.50;;;35.50;49.80;;;;;;5054734;28;20467;-71
2023/09/10 11:50:58;;;;;;;10.33;6.90;;;36.10;50.60;;;;;;5067755;28;20826;-72
2023/09/10 11:53:28;;;;;;;10.00;6.47;;;36.70;50.10;;;;;;5058038;28;20958;-71
2023/09/10 11:55:56;;;;;;;13.53;6.93;;;37.10;47.80;;;;;;5063606;28;20439;-72
2023/09/10 11:58:24;;;;;;;13.40;7.30;;;37.60;47.10;;;;;;5058091;28;20460;-71
2023/09/10 12:00:53;;;;;;;14.30;9.60;;;37.30;45.50;;;;;;5049465;28;20475;-72
2023/09/10 12:03:22;;;;;;;11.00;7.03;;;36.70;46.90;;;;;;5053965;28;20796;-70
2023/09/10 12:05:50;;;;;;;13.13;7.40;;;36.90;47.10;;;;;;5059053;28;20561;-72
2023/09/10 12:08:19;;;;;;;10.77;6.47;;;37.30;45.50;;;;;;5065750;28;20495;-71
2023/09/10 12:10:47;;;;;;;9.83;6.77;;;38.20;44.80;;;;;;5066501;28;20485;-72
2023/09/10 12:13:16;;;;;;;9.60;6.40;;;39.00;43.20;;;;;;5058934;28;20911;-72
2023/09/10 12:15:44;;;;;;;11.33;7.00;;;39.70;42.60;;;;;;5060350;28;20857;-71
2023/09/10 12:18:13;;;;;;;9.87;6.27;;;39.00;40.60;;;;;;5059356;28;20471;-71
2023/09/10 12:20:41;;;;;;;11.50;6.80;;;38.10;40.90;;;;;;5046282;28;20509;-71
2023/09/10 12:23:09;;;;;;;11.53;5.97;;;37.30;42.30;;;;;;5050541;28;20450;-72
2023/09/10 12:25:40;;;;;;;11.33;5.90;;;37.40;44.70;;;;;;5061615;28;21021;-72
2023/09/10 12:28:08;;;;;;;12.87;6.10;;;38.30;45.30;;;;;;5061999;28;20534;-72
2023/09/10 12:30:36;;;;;;;12.70;8.87;;;38.10;40.50;;;;;;5058843;28;20513;-71
2023/09/10 12:33:06;;;;;;;10.33;6.70;;;37.30;41.10;;;;;;5059996;28;20443;-69
2023/09/10 12:35:35;;;;;;;10.30;7.27;;;36.10;41.70;;;;;;5058837;28;20989;-71
2023/09/10 12:38:03;;;;;;;10.33;6.37;;;35.60;45.00;;;;;;5060679;28;20451;-72